Time;durP1;ratioP1;P1;durP2;ratioP2;P2;SDS_P1;SDS_P2;PMS_P1;PMS_P2;Temp;Humidity;BMP_temperature;BMP_pressure;BME280_temperature;BME280_humidity;BME280_pressure;Samples;Min_cycle;Max_cycle;Signal;HPM_P1;HPM_P2
2023/10/11 00:01:04;;;;;;;31.45;14.55;;;;;;;;;;6215317;23;20791;-40
2023/10/11 00:03:33;;;;;;;30.13;13.50;;;;;;;;;;6210881;23;20096;-41
2023/10/11 00:06:04;;;;;;;32.08;14.63;;;;;;;;;;6210876;23;20095;-40
2023/10/11 00:08:40;;;;;;;30.60;13.88;;;;;;;;;;6177632;23;20019;-41
2023/10/11 00:11:08;;;;;;;35.13;14.27;;;;;;;;;;6213041;23;20022;-42
2023/10/11 00:13:37;;;;;;;31.45;14.45;;;;;;;;;;6201154;23;20016;-40
2023/10/11 00:16:10;;;;;;;34.90;13.57;;;;;;;;;;6214824;23;20023;-40
2023/10/11 00:18:41;;;;;;;33.88;14.32;;;;;;;;;;6214003;23;20047;-42
2023/10/11 00:21:11;;;;;;;32.17;14.07;;;;;;;;;;6200083;23;20063;-41
2023/10/11 00:23:41;;;;;;;27.92;13.63;;;;;;;;;;6219435;23;20474;-41
2023/10/11 00:26:09;;;;;;;31.77;13.98;;;;;;;;;;6201764;23;20595;-41
2023/10/11 00:28:38;;;;;;;32.40;13.57;;;;;;;;;;6221594;23;20020;-41
2023/10/11 00:31:12;;;;;;;35.17;14.40;;;;;;;;;;6202137;23;20020;-42
2023/10/11 00:33:43;;;;;;;32.85;14.77;;;;;;;;;;6219864;23;20023;-41
2023/10/11 00:36:11;;;;;;;30.38;14.48;;;;;;;;;;6202085;23;20040;-42
2023/10/11 00:38:48;;;;;;;27.30;12.35;;;;;;;;;;6219888;23;20296;-41
2023/10/11 00:41:18;;;;;;;34.60;15.50;;;;;;;;;;6203313;23;20087;-42
2023/10/11 00:43:51;;;;;;;32.20;14.63;;;;;;;;;;6209975;23;20016;-40
2023/10/11 00:46:20;;;;;;;29.75;14.45;;;;;;;;;;6214377;23;20016;-40
2023/10/11 00:48:57;;;;;;;30.27;14.25;;;;;;;;;;6211185;23;20043;-41
2023/10/11 00:51:29;;;;;;;32.10;13.35;;;;;;;;;;6210491;23;20520;-41
2023/10/11 00:53:58;;;;;;;27.30;12.97;;;;;;;;;;6209423;23;20245;-46
2023/10/11 00:56:31;;;;;;;28.58;13.57;;;;;;;;;;6214646;23;20497;-41
2023/10/11 00:59:00;;;;;;;26.08;12.68;;;;;;;;;;6211850;23;20470;-40
2023/10/11 01:01:28;;;;;;;25.45;12.52;;;;;;;;;;6210104;23;20016;-40
2023/10/11 01:03:58;;;;;;;31.17;14.15;;;;;;;;;;6214678;23;20012;-40
2023/10/11 01:06:26;;;;;;;27.80;13.07;;;;;;;;;;6155138;23;20029;-40
2023/10/11 01:08:54;;;;;;;30.52;13.70;;;;;;;;;;6194746;23;20451;-40
2023/10/11 01:11:22;;;;;;;32.50;12.63;;;;;;;;;;6201862;23;20016;-40
2023/10/11 01:13:51;;;;;;;33.47;13.43;;;;;;;;;;6216932;23;20062;-41
2023/10/11 01:16:24;;;;;;;30.50;14.05;;;;;;;;;;6210504;23;20353;-41
2023/10/11 01:18:52;;;;;;;30.43;13.60;;;;;;;;;;6212391;23;20027;-40
2023/10/11 01:21:21;;;;;;;30.98;13.63;;;;;;;;;;6200352;23;20681;-41
2023/10/11 01:23:49;;;;;;;31.17;13.65;;;;;;;;;;6219176;23;20020;-41
2023/10/11 01:26:17;;;;;;;27.17;13.38;;;;;;;;;;6205018;23;20100;-41
2023/10/11 01:28:45;;;;;;;25.08;12.38;;;;;;;;;;6217820;23;20024;-40
2023/10/11 01:31:16;;;;;;;27.40;13.20;;;;;;;;;;6202051;23;20016;-40
2023/10/11 01:33:48;;;;;;;31.02;13.18;;;;;;;;;;6210160;23;20035;-42
2023/10/11 01:36:21;;;;;;;27.55;12.93;;;;;;;;;;6204914;23;20032;-41
2023/10/11 01:38:51;;;;;;;22.92;11.65;;;;;;;;;;6217798;23;20016;-41
2023/10/11 01:41:19;;;;;;;23.58;13.20;;;;;;;;;;6206494;23;20012;-41
2023/10/11 01:43:49;;;;;;;28.63;12.87;;;;;;;;;;6215361;23;20046;-40
2023/10/11 01:46:24;;;;;;;26.27;12.13;;;;;;;;;;6209096;23;20016;-43
2023/10/11 01:48:52;;;;;;;28.10;13.43;;;;;;;;;;6219420;23;20012;-40
2023/10/11 01:51:26;;;;;;;25.52;12.30;;;;;;;;;;6212469;23;20248;-41
2023/10/11 01:53:56;;;;;;;32.63;12.65;;;;;;;;;;6220988;23;20350;-41
2023/10/11 01:56:25;;;;;;;23.73;11.83;;;;;;;;;;6214931;23;20066;-43
2023/10/11 01:58:56;;;;;;;24.15;13.13;;;;;;;;;;6215802;23;20016;-42
2023/10/11 02:01:26;;;;;;;24.77;12.43;;;;;;;;;;6220937;23;20062;-40
2023/10/11 02:03:58;;;;;;;20.83;10.88;;;;;;;;;;6216793;23;20130;-41
2023/10/11 02:06:31;;;;;;;26.23;12.05;;;;;;;;;;6213771;23;20012;-42
2023/10/11 02:09:02;;;;;;;29.77;12.20;;;;;;;;;;6219636;23;20016;-41
2023/10/11 02:11:30;;;;;;;23.08;11.98;;;;;;;;;;6211282;23;20024;-41
2023/10/11 02:13:58;;;;;;;26.50;12.18;;;;;;;;;;6214787;23;20467;-43
2023/10/11 02:16:28;;;;;;;24.35;11.77;;;;;;;;;;6217268;23;20077;-41
2023/10/11 02:18:58;;;;;;;22.23;10.82;;;;;;;;;;6210608;23;20012;-40
2023/10/11 02:21:27;;;;;;;26.00;11.83;;;;;;;;;;6219189;23;20091;-41
2023/10/11 02:23:56;;;;;;;25.98;11.57;;;;;;;;;;6209078;23;20163;-43
2023/10/11 02:26:34;;;;;;;24.23;12.40;;;;;;;;;;6190796;23;20352;-41
2023/10/11 02:29:15;;;;;;;26.13;11.63;;;;;;;;;;6225347;23;20044;-42
2023/10/11 02:31:44;;;;;;;27.85;12.50;;;;;;;;;;6216079;23;20024;-41
2023/10/11 02:34:14;;;;;;;25.97;12.47;;;;;;;;;;6212387;23;20454;-40
2023/10/11 02:36:43;;;;;;;22.40;11.15;;;;;;;;;;6196451;23;20024;-41
2023/10/11 02:39:17;;;;;;;26.42;12.13;;;;;;;;;;6213854;23;20461;-40
2023/10/11 02:41:49;;;;;;;22.98;12.30;;;;;;;;;;6221339;23;20016;-40
2023/10/11 02:44:22;;;;;;;27.48;11.88;;;;;;;;;;6208132;23;20020;-40
2023/10/11 02:46:50;;;;;;;23.57;11.93;;;;;;;;;;6224989;23;20043;-40
2023/10/11 02:49:20;;;;;;;22.58;11.77;;;;;;;;;;6209675;23;20016;-42
2023/10/11 02:51:53;;;;;;;23.90;11.63;;;;;;;;;;6218425;23;20435;-40
2023/10/11 02:54:21;;;;;;;23.92;12.05;;;;;;;;;;6219888;23;20026;-41
2023/10/11 02:56:52;;;;;;;25.85;11.85;;;;;;;;;;6208243;23;20016;-41
2023/10/11 02:59:22;;;;;;;22.13;10.90;;;;;;;;;;6224190;23;20054;-41
2023/10/11 03:02:00;;;;;;;22.27;11.75;;;;;;;;;;6177359;23;20356;-41
2023/10/11 03:04:29;;;;;;;23.52;11.63;;;;;;;;;;6222575;23;20024;-41
2023/10/11 03:07:00;;;;;;;24.08;11.13;;;;;;;;;;6210481;23;20595;-41
2023/10/11 03:09:28;;;;;;;22.02;10.82;;;;;;;;;;6222509;23;20470;-41
2023/10/11 03:12:05;;;;;;;20.73;10.20;;;;;;;;;;6209083;23;20496;-42
2023/10/11 03:14:41;;;;;;;20.48;10.25;;;;;;;;;;6207388;23;20569;-41
2023/10/11 03:17:13;;;;;;;24.73;11.57;;;;;;;;;;6220780;23;20070;-41
2023/10/11 03:19:42;;;;;;;22.25;10.73;;;;;;;;;;6213707;23;20937;-42
2023/10/11 03:22:11;;;;;;;22.50;10.48;;;;;;;;;;6217273;23;20016;-41
2023/10/11 03:24:42;;;;;;;22.03;10.47;;;;;;;;;;6213092;23;20035;-40
2023/10/11 03:27:13;;;;;;;18.38;8.80;;;;;;;;;;6214177;23;20023;-41
2023/10/11 03:29:41;;;;;;;20.20;10.20;;;;;;;;;;6220038;23;20016;-41
2023/10/11 03:32:10;;;;;;;22.27;10.82;;;;;;;;;;6222979;23;20027;-40
2023/10/11 03:34:38;;;;;;;17.60;9.57;;;;;;;;;;6210553;23;20023;-41
2023/10/11 03:37:10;;;;;;;20.10;11.10;;;;;;;;;;6217372;23;20016;-41
2023/10/11 03:39:44;;;;;;;17.95;9.20;;;;;;;;;;6211936;23;20020;-46
2023/10/11 03:42:17;;;;;;;22.05;9.25;;;;;;;;;;6223406;23;20020;-42
2023/10/11 03:44:46;;;;;;;23.10;9.98;;;;;;;;;;6214806;23;20070;-41
2023/10/11 03:47:22;;;;;;;20.70;10.15;;;;;;;;;;6195326;23;20077;-41
2023/10/11 03:49:52;;;;;;;16.43;9.10;;;;;;;;;;6219380;23;20012;-40
2023/10/11 03:52:22;;;;;;;19.38;10.25;;;;;;;;;;6225635;23;20093;-40
2023/10/11 03:55:00;;;;;;;20.02;10.13;;;;;;;;;;6225888;23;20327;-40
2023/10/11 03:57:35;;;;;;;20.85;9.38;;;;;;;;;;6204164;23;20020;-41
2023/10/11 04:00:24;;;;;;;20.33;9.27;;;;;;;;;;6209664;23;20016;-40
2023/10/11 04:02:56;;;;;;;17.97;8.40;;;;;;;;;;6209169;23;20399;-40
2023/10/11 04:05:28;;;;;;;19.10;9.25;;;;;;;;;;6212791;23;20045;-41
2023/10/11 04:07:56;;;;;;;16.25;8.80;;;;;;;;;;6216343;23;20115;-40
2023/10/11 04:10:38;;;;;;;15.70;8.00;;;;;;;;;;6226355;23;20059;-41
2023/10/11 04:13:09;;;;;;;16.85;8.48;;;;;;;;;;6218364;23;20017;-41
2023/10/11 04:15:40;;;;;;;16.90;8.27;;;;;;;;;;6212830;23;20051;-40
2023/10/11 04:18:20;;;;;;;16.95;8.13;;;;;;;;;;6216446;23;20027;-41
2023/10/11 04:20:59;;;;;;;20.38;9.07;;;;;;;;;;6215948;23;20550;-40
2023/10/11 04:23:28;;;;;;;16.42;7.55;;;;;;;;;;6210093;23;20077;-40
2023/10/11 04:25:56;;;;;;;20.67;9.57;;;;;;;;;;6213863;23;20564;-40
2023/10/11 04:28:25;;;;;;;20.73;8.80;;;;;;;;;;6221613;23;20020;-41
2023/10/11 04:31:27;;;;;;;21.42;8.80;;;;;;;;;;6218606;23;20481;-41
2023/10/11 04:33:45;;;;;;;16.02;7.85;;;;;;;;;;6219100;23;20062;-41
2023/10/11 04:36:13;;;;;;;19.10;8.13;;;;;;;;;;6215874;23;20057;-41
2023/10/11 04:38:47;;;;;;;16.65;7.90;;;;;;;;;;6195279;23;20023;-42
2023/10/11 04:41:17;;;;;;;17.33;8.50;;;;;;;;;;6208718;23;20382;-41
2023/10/11 04:43:50;;;;;;;16.83;7.88;;;;;;;;;;6214726;23;20019;-41
2023/10/11 04:46:18;;;;;;;18.40;8.48;;;;;;;;;;6220218;23;20034;-45
2023/10/11 04:48:48;;;;;;;18.52;7.47;;;;;;;;;;6195108;23;20023;-41
2023/10/11 04:51:23;;;;;;;17.98;8.63;;;;;;;;;;6216236;23;20020;-43
2023/10/11 04:53:58;;;;;;;15.90;7.87;;;;;;;;;;6187379;23;20418;-41
2023/10/11 04:59:17;;;;;;;17.17;7.32;;;;;;;;;;6207706;23;20443;-43
2023/10/11 05:01:58;;;;;;;16.17;6.93;;;;;;;;;;6206205;23;20016;-40
2023/10/11 05:04:32;;;;;;;16.38;7.35;;;;;;;;;;6204813;23;20016;-41
2023/10/11 05:07:04;;;;;;;14.87;7.20;;;;;;;;;;6193075;23;20052;-42
2023/10/11 05:09:38;;;;;;;16.55;6.70;;;;;;;;;;6208380;23;20016;-41
2023/10/11 05:12:10;;;;;;;17.77;7.15;;;;;;;;;;6206004;23;20123;-43
2023/10/11 05:14:56;;;;;;;17.50;7.93;;;;;;;;;;6211465;23;20016;-47
2023/10/11 05:17:38;;;;;;;18.15;7.47;;;;;;;;;;6207895;23;20615;-43
2023/10/11 05:20:44;;;;;;;16.00;7.77;;;;;;;;;;6208156;23;20044;-42
2023/10/11 05:23:13;;;;;;;16.20;7.80;;;;;;;;;;6190907;23;20024;-41
2023/10/11 05:25:56;;;;;;;17.10;7.65;;;;;;;;;;6193683;23;20103;-41
2023/10/11 05:28:44;;;;;;;13.48;6.75;;;;;;;;;;6188812;23;20340;-41
2023/10/11 05:31:34;;;;;;;16.08;6.90;;;;;;;;;;6199911;23;20024;-41
2023/10/11 05:50:54;;;;;;;24.02;7.28;;;;;;;;;;6197139;23;20320;-41
2023/10/11 05:53:24;;;;;;;16.17;7.13;;;;;;;;;;6221466;23;20020;-40
2023/10/11 05:55:56;;;;;;;18.40;7.38;;;;;;;;;;6206911;23;20445;-41
2023/10/11 05:58:24;;;;;;;15.93;7.55;;;;;;;;;;6211761;23;20024;-44
2023/10/11 06:00:54;;;;;;;18.97;7.13;;;;;;;;;;6206204;23;20111;-41
2023/10/11 06:03:28;;;;;;;18.70;7.70;;;;;;;;;;6215485;23;20042;-42
2023/10/11 06:05:59;;;;;;;16.10;7.78;;;;;;;;;;6209008;23;20073;-43
2023/10/11 06:08:31;;;;;;;18.52;7.60;;;;;;;;;;6211373;23;20044;-41
2023/10/11 06:10:59;;;;;;;19.83;8.55;;;;;;;;;;6211450;23;20020;-43
2023/10/11 06:13:26;;;;;;;19.80;7.63;;;;;;;;;;6217888;23;20505;-42
2023/10/11 06:16:00;;;;;;;16.27;7.32;;;;;;;;;;6207569;23;20016;-41
2023/10/11 06:18:55;;;;;;;17.33;7.65;;;;;;;;;;6206161;23;20012;-41
2023/10/11 06:21:32;;;;;;;16.75;7.07;;;;;;;;;;6219902;23;20016;-40
2023/10/11 06:24:06;;;;;;;17.20;7.82;;;;;;;;;;6216353;23;20054;-41
2023/10/11 06:29:29;;;;;;;18.63;7.15;;;;;;;;;;6179406;23;20131;-40
2023/10/11 06:32:01;;;;;;;21.08;7.85;;;;;;;;;;6208601;23;20465;-40
2023/10/11 06:34:50;;;;;;;13.73;6.55;;;;;;;;;;6211365;23;20063;-41
2023/10/11 06:37:24;;;;;;;16.77;7.35;;;;;;;;;;6217734;23;20017;-41
2023/10/11 06:40:09;;;;;;;16.40;6.93;;;;;;;;;;6203347;23;20020;-41
2023/10/11 06:42:36;;;;;;;21.73;7.70;;;;;;;;;;6213844;23;20039;-41
2023/10/11 06:45:16;;;;;;;17.33;6.80;;;;;;;;;;6205614;23;20099;-40
2023/10/11 06:47:49;;;;;;;16.63;7.00;;;;;;;;;;6204233;23;20016;-41
2023/10/11 06:50:24;;;;;;;15.77;7.38;;;;;;;;;;6219929;23;20324;-41
2023/10/11 06:52:53;;;;;;;17.60;7.80;;;;;;;;;;6200349;23;20066;-41
2023/10/11 06:55:25;;;;;;;18.63;7.40;;;;;;;;;;6190399;23;20537;-42
2023/10/11 06:57:54;;;;;;;21.25;8.30;;;;;;;;;;6210623;23;20056;-41
2023/10/11 07:00:24;;;;;;;15.77;7.60;;;;;;;;;;6207843;23;20497;-41
2023/10/11 07:02:53;;;;;;;18.35;8.07;;;;;;;;;;6206154;23;20031;-41
2023/10/11 07:05:25;;;;;;;16.77;7.73;;;;;;;;;;6208352;23;20077;-42
2023/10/11 07:07:55;;;;;;;16.60;7.45;;;;;;;;;;6200923;23;20024;-41
2023/10/11 07:10:35;;;;;;;16.38;7.35;;;;;;;;;;6223529;23;20070;-43
2023/10/11 07:13:07;;;;;;;19.25;7.03;;;;;;;;;;6213042;23;20016;-41
2023/10/11 07:15:40;;;;;;;19.15;8.00;;;;;;;;;;6204780;23;20019;-41
2023/10/11 07:18:10;;;;;;;20.53;8.37;;;;;;;;;;6214302;23;20704;-43
2023/10/11 07:20:49;;;;;;;15.80;6.47;;;;;;;;;;6199827;23;20137;-41
2023/10/11 07:23:21;;;;;;;20.10;8.20;;;;;;;;;;6213746;23;20020;-41
2023/10/11 07:25:49;;;;;;;14.10;6.63;;;;;;;;;;6201380;23;20409;-41
2023/10/11 07:28:35;;;;;;;17.77;6.60;;;;;;;;;;6208979;23;20488;-41
2023/10/11 07:31:04;;;;;;;17.87;6.83;;;;;;;;;;6163954;23;20023;-41
2023/10/11 07:33:31;;;;;;;19.40;7.05;;;;;;;;;;6181187;23;20039;-41
2023/10/11 07:36:00;;;;;;;16.58;5.45;;;;;;;;;;6192775;23;20020;-43
2023/10/11 07:38:34;;;;;;;16.10;6.90;;;;;;;;;;6207327;23;20091;-41
2023/10/11 07:41:05;;;;;;;16.55;5.35;;;;;;;;;;6192581;23;20043;-41
2023/10/11 07:43:33;;;;;;;11.37;4.90;;;;;;;;;;6208285;23;20047;-41
2023/10/11 07:46:04;;;;;;;11.82;4.88;;;;;;;;;;6206527;23;20513;-41
2023/10/11 07:48:32;;;;;;;11.23;4.25;;;;;;;;;;6154058;23;20435;-40
2023/10/11 07:51:09;;;;;;;12.70;5.40;;;;;;;;;;6206923;23;20293;-41
2023/10/11 07:53:40;;;;;;;13.00;5.22;;;;;;;;;;6204410;23;20016;-41
2023/10/11 07:56:10;;;;;;;14.27;6.00;;;;;;;;;;6210661;23;20031;-41
2023/10/11 07:58:45;;;;;;;12.77;4.60;;;;;;;;;;6186480;23;20027;-40
2023/10/11 08:01:24;;;;;;;10.82;4.45;;;;;;;;;;6144111;23;20046;-40
2023/10/11 08:03:53;;;;;;;16.58;5.95;;;;;;;;;;6199656;23;20016;-41
2023/10/11 08:06:25;;;;;;;12.10;4.95;;;;;;;;;;6202870;23;20022;-42
2023/10/11 08:08:58;;;;;;;12.20;5.23;;;;;;;;;;6176784;23;20542;-40
2023/10/11 08:11:28;;;;;;;11.52;5.10;;;;;;;;;;6199536;23;20384;-40
2023/10/11 08:14:00;;;;;;;12.20;4.90;;;;;;;;;;6190409;23;20024;-39
2023/10/11 08:16:28;;;;;;;10.93;4.18;;;;;;;;;;6174100;23;20401;-42
2023/10/11 08:18:56;;;;;;;13.75;5.60;;;;;;;;;;6181430;23;20020;-41
2023/10/11 08:21:25;;;;;;;15.33;5.50;;;;;;;;;;6176132;23;20082;-42
2023/10/11 08:23:52;;;;;;;11.77;5.00;;;;;;;;;;6168053;23;20518;-40
2023/10/11 08:26:21;;;;;;;14.63;4.93;;;;;;;;;;6189302;23;20030;-39
2023/10/11 08:28:49;;;;;;;8.85;3.63;;;;;;;;;;6187923;23;20386;-40
2023/10/11 08:31:27;;;;;;;11.23;4.63;;;;;;;;;;6155728;23;20853;-40
2023/10/11 08:33:55;;;;;;;9.33;3.87;;;;;;;;;;6184268;23;20024;-40
2023/10/11 08:36:29;;;;;;;8.98;4.38;;;;;;;;;;6145508;23;20024;-40
2023/10/11 08:39:02;;;;;;;10.32;3.67;;;;;;;;;;6176047;23;20020;-40
2023/10/11 08:41:31;;;;;;;11.60;4.13;;;;;;;;;;6174529;23;20797;-42
2023/10/11 08:44:01;;;;;;;12.80;4.78;;;;;;;;;;6177192;23;20026;-43
2023/10/11 08:46:29;;;;;;;11.00;4.67;;;;;;;;;;6171105;23;20016;-40
2023/10/11 08:49:00;;;;;;;11.02;4.15;;;;;;;;;;6154731;23;20066;-40
2023/10/11 08:51:36;;;;;;;11.55;4.82;;;;;;;;;;6204999;23;20016;-41
2023/10/11 08:54:11;;;;;;;12.20;4.28;;;;;;;;;;6204749;23;20019;-40
2023/10/11 08:56:48;;;;;;;14.60;4.70;;;;;;;;;;6205798;23;20044;-40
2023/10/11 08:59:16;;;;;;;9.43;3.83;;;;;;;;;;6218215;23;20031;-40
2023/10/11 09:01:45;;;;;;;11.02;4.45;;;;;;;;;;6203108;23;20016;-40
2023/10/11 09:04:14;;;;;;;12.50;4.88;;;;;;;;;;6207176;23;20195;-40
2023/10/11 09:06:45;;;;;;;9.32;3.63;;;;;;;;;;6211458;23;20024;-41
2023/10/11 09:09:32;;;;;;;10.20;4.25;;;;;;;;;;6209219;23;20020;-39
2023/10/11 09:12:20;;;;;;;9.30;3.77;;;;;;;;;;6212457;23;20066;-41
2023/10/11 09:14:58;;;;;;;10.40;3.97;;;;;;;;;;6212601;23;20043;-41
2023/10/11 09:17:27;;;;;;;9.45;4.13;;;;;;;;;;6200698;23;20066;-40
2023/10/11 09:19:58;;;;;;;10.52;3.78;;;;;;;;;;6180336;23;20024;-40
2023/10/11 09:22:45;;;;;;;11.82;4.88;;;;;;;;;;6208323;23;20414;-40
2023/10/11 09:25:21;;;;;;;12.00;4.23;;;;;;;;;;6193497;23;20246;-40
2023/10/11 09:27:54;;;;;;;11.05;4.63;;;;;;;;;;6206659;23;20051;-40
2023/10/11 09:30:21;;;;;;;13.15;4.53;;;;;;;;;;6207517;23;20026;-42
2023/10/11 09:32:52;;;;;;;12.27;3.90;;;;;;;;;;6202269;23;20446;-40
2023/10/11 09:35:26;;;;;;;11.60;4.28;;;;;;;;;;6210148;23;20042;-43
2023/10/11 09:37:57;;;;;;;9.80;4.10;;;;;;;;;;6204310;23;20051;-40
2023/10/11 09:40:28;;;;;;;10.98;4.93;;;;;;;;;;6212550;23;20032;-42
2023/10/11 09:43:00;;;;;;;10.52;4.57;;;;;;;;;;6202653;23;20243;-41
2023/10/11 09:45:30;;;;;;;11.65;4.53;;;;;;;;;;6206439;23;20016;-40
2023/10/11 09:47:58;;;;;;;12.60;4.85;;;;;;;;;;6206215;23;20023;-39
2023/10/11 09:50:26;;;;;;;14.77;4.83;;;;;;;;;;6208046;23;20120;-40
2023/10/11 09:52:54;;;;;;;13.82;5.10;;;;;;;;;;6208782;23;20023;-40
2023/10/11 09:55:31;;;;;;;11.00;4.45;;;;;;;;;;6211785;23;20025;-40
2023/10/11 09:58:01;;;;;;;10.75;4.07;;;;;;;;;;6185700;23;20047;-41
2023/10/11 10:00:36;;;;;;;12.98;4.80;;;;;;;;;;6214640;23;20092;-40
2023/10/11 10:03:05;;;;;;;15.33;4.70;;;;;;;;;;6193430;23;20395;-41
2023/10/11 10:05:48;;;;;;;15.27;6.15;;;;;;;;;;6219323;23;20034;-40
2023/10/11 10:08:15;;;;;;;14.10;4.75;;;;;;;;;;6184440;23;20020;-40
2023/10/11 10:10:54;;;;;;;13.10;4.30;;;;;;;;;;6206012;23;20415;-40
2023/10/11 10:13:24;;;;;;;9.77;4.13;;;;;;;;;;6208853;23;20012;-40
2023/10/11 10:15:53;;;;;;;13.73;4.90;;;;;;;;;;6195068;23;20026;-41
2023/10/11 10:18:22;;;;;;;11.73;4.00;;;;;;;;;;6208067;23;20048;-42
2023/10/11 10:21:01;;;;;;;13.70;5.03;;;;;;;;;;6198762;23;20854;-40
2023/10/11 10:23:40;;;;;;;13.15;5.25;;;;;;;;;;6170551;23;20229;-40
2023/10/11 10:26:38;;;;;;;14.43;5.10;;;;;;;;;;6215810;23;20070;-40
2023/10/11 10:29:15;;;;;;;14.53;5.20;;;;;;;;;;6216624;23;20453;-40
2023/10/11 10:32:03;;;;;;;15.55;4.95;;;;;;;;;;6183865;23;20020;-40
2023/10/11 10:34:31;;;;;;;10.38;4.95;;;;;;;;;;6154827;23;20230;-41
2023/10/11 10:37:06;;;;;;;14.15;4.72;;;;;;;;;;6187179;23;20797;-40
2023/10/11 10:39:49;;;;;;;12.45;5.07;;;;;;;;;;6178722;23;20016;-42
2023/10/11 10:42:17;;;;;;;12.83;4.73;;;;;;;;;;6191876;23;20382;-41
2023/10/11 10:45:02;;;;;;;12.13;5.18;;;;;;;;;;6186856;23;20684;-40
2023/10/11 10:47:32;;;;;;;23.27;6.65;;;;;;;;;;6176182;23;20020;-41
2023/10/11 10:50:21;;;;;;;19.33;6.18;;;;;;;;;;6159236;23;20023;-42
2023/10/11 10:52:50;;;;;;;19.67;5.88;;;;;;;;;;6184418;23;20074;-42
2023/10/11 10:55:18;;;;;;;19.57;6.13;;;;;;;;;;6190651;23;20277;-40
2023/10/11 10:57:49;;;;;;;18.63;6.15;;;;;;;;;;6187966;23;20098;-40
2023/10/11 11:00:24;;;;;;;14.52;6.05;;;;;;;;;;6193306;23;20093;-40
2023/10/11 11:02:56;;;;;;;20.25;5.95;;;;;;;;;;6183904;23;20020;-40
2023/10/11 11:05:29;;;;;;;15.95;6.15;;;;;;;;;;6185247;23;20024;-41
2023/10/11 11:08:15;;;;;;;16.57;7.10;;;;;;;;;;6185439;23;20038;-42
2023/10/11 11:10:54;;;;;;;16.75;6.50;;;;;;;;;;6186193;23;20548;-44
2023/10/11 11:13:22;;;;;;;15.02;5.47;;;;;;;;;;6187372;23;20027;-47
2023/10/11 11:15:55;;;;;;;18.63;7.32;;;;;;;;;;6178301;23;20111;-42
2023/10/11 11:18:31;;;;;;;22.42;7.38;;;;;;;;;;6157784;23;20356;-41
2023/10/11 11:21:04;;;;;;;13.57;5.47;;;;;;;;;;6188488;23;20028;-43
2023/10/11 11:23:33;;;;;;;22.42;7.22;;;;;;;;;;6177379;23;20091;-41
2023/10/11 11:26:04;;;;;;;22.05;7.40;;;;;;;;;;6189545;23;20020;-41
2023/10/11 11:28:39;;;;;;;15.63;7.53;;;;;;;;;;6185459;23;20016;-43
2023/10/11 11:31:11;;;;;;;16.55;6.65;;;;;;;;;;6176578;23;20016;-40
2023/10/11 11:33:47;;;;;;;15.97;6.20;;;;;;;;;;6189429;23;20024;-41
2023/10/11 11:36:23;;;;;;;22.15;6.85;;;;;;;;;;6171942;23;20020;-40
2023/10/11 11:38:55;;;;;;;22.45;8.10;;;;;;;;;;6189075;23;20111;-41
2023/10/11 11:41:22;;;;;;;19.95;7.22;;;;;;;;;;6175742;23;20016;-40
2023/10/11 11:43:56;;;;;;;19.05;7.75;;;;;;;;;;6179711;23;20105;-40
2023/10/11 11:46:22;;;;;;;25.40;6.43;;;;;;;;;;6191860;23;20016;-40
2023/10/11 11:48:52;;;;;;;22.90;7.40;;;;;;;;;;6174139;23;20020;-42
2023/10/11 11:51:19;;;;;;;17.67;6.15;;;;;;;;;;6181177;23;20027;-42
2023/10/11 11:53:47;;;;;;;20.45;6.65;;;;;;;;;;6183681;23;20506;-41
2023/10/11 11:56:20;;;;;;;16.45;8.20;;;;;;;;;;6194272;23;20028;-42
2023/10/11 11:58:49;;;;;;;20.17;7.83;;;;;;;;;;6188358;23;20016;-40
2023/10/11 12:01:19;;;;;;;19.92;7.65;;;;;;;;;;6182376;23;20016;-40
2023/10/11 12:03:53;;;;;;;24.55;9.15;;;;;;;;;;6187299;23;20043;-43
2023/10/11 12:06:23;;;;;;;26.77;9.13;;;;;;;;;;6177471;23;20020;-41
2023/10/11 12:08:57;;;;;;;21.73;7.80;;;;;;;;;;6192469;23;20020;-41
2023/10/11 12:11:28;;;;;;;23.17;8.47;;;;;;;;;;6183651;23;20106;-40
2023/10/11 12:13:57;;;;;;;29.60;8.25;;;;;;;;;;6178166;23;20016;-40
2023/10/11 12:16:26;;;;;;;17.45;7.03;;;;;;;;;;6180815;23;20020;-40
2023/10/11 12:18:58;;;;;;;24.92;7.75;;;;;;;;;;6173886;23;20077;-40
2023/10/11 12:21:28;;;;;;;28.20;8.20;;;;;;;;;;6187858;23;20192;-40
2023/10/11 12:23:56;;;;;;;20.73;7.67;;;;;;;;;;6139894;23;20380;-40
2023/10/11 12:26:26;;;;;;;19.70;8.30;;;;;;;;;;6189131;23;20044;-41
2023/10/11 12:28:55;;;;;;;14.02;5.55;;;;;;;;;;6168966;23;20024;-40
2023/10/11 12:31:22;;;;;;;21.85;7.40;;;;;;;;;;6184304;23;20878;-41
2023/10/11 12:33:51;;;;;;;19.38;7.15;;;;;;;;;;6076896;23;20020;-42
2023/10/11 12:36:20;;;;;;;17.27;7.20;;;;;;;;;;6157969;23;20074;-41
2023/10/11 12:38:50;;;;;;;20.42;6.60;;;;;;;;;;6182832;23;20028;-41
2023/10/11 12:41:18;;;;;;;26.60;7.70;;;;;;;;;;6190260;23;20020;-40
2023/10/11 12:43:46;;;;;;;22.55;7.22;;;;;;;;;;6181843;23;20016;-40
2023/10/11 12:46:16;;;;;;;22.23;8.05;;;;;;;;;;6187012;23;20355;-41
2023/10/11 12:48:54;;;;;;;25.83;7.97;;;;;;;;;;6144824;23;20308;-41
2023/10/11 12:51:24;;;;;;;19.92;6.70;;;;;;;;;;6193028;23;20457;-41
2023/10/11 12:53:55;;;;;;;19.27;7.32;;;;;;;;;;6183160;23;20511;-41
2023/10/11 12:56:25;;;;;;;16.10;5.88;;;;;;;;;;6191571;23;20020;-43
2023/10/11 12:59:02;;;;;;;24.73;7.30;;;;;;;;;;6194207;23;20027;-40
2023/10/11 13:01:39;;;;;;;23.27;7.10;;;;;;;;;;6195055;23;20020;-41
2023/10/11 13:04:17;;;;;;;23.42;7.90;;;;;;;;;;6128175;23;20012;-42
2023/10/11 13:06:59;;;;;;;17.40;6.40;;;;;;;;;;6199796;23;20135;-41
2023/10/11 13:09:28;;;;;;;24.38;8.63;;;;;;;;;;6198162;23;20020;-41
2023/10/11 13:11:58;;;;;;;31.90;9.15;;;;;;;;;;6185471;23;20605;-44
2023/10/11 13:14:26;;;;;;;28.63;8.63;;;;;;;;;;6189431;23;20031;-40
2023/10/11 13:16:58;;;;;;;28.45;9.43;;;;;;;;;;6179622;23;20426;-42
2023/10/11 13:19:26;;;;;;;28.77;9.25;;;;;;;;;;6197751;23;20013;-40
2023/10/11 13:21:55;;;;;;;25.92;8.80;;;;;;;;;;6170932;23;20020;-40
2023/10/11 13:24:23;;;;;;;20.58;8.70;;;;;;;;;;6192033;23;20019;-40
2023/10/11 13:26:54;;;;;;;29.43;9.93;;;;;;;;;;6180672;23;20012;-43
2023/10/11 13:29:23;;;;;;;24.65;8.02;;;;;;;;;;6193765;23;20019;-40
2023/10/11 13:31:53;;;;;;;20.85;8.02;;;;;;;;;;6187191;23;20459;-41
2023/10/11 13:34:22;;;;;;;22.85;8.90;;;;;;;;;;6180650;23;20062;-40
2023/10/11 13:36:50;;;;;;;21.52;8.30;;;;;;;;;;6188817;23;20020;-40
2023/10/11 13:39:26;;;;;;;27.83;9.40;;;;;;;;;;6189899;23;20015;-41
2023/10/11 13:41:56;;;;;;;20.45;8.95;;;;;;;;;;6189589;23;20796;-40
2023/10/11 13:44:25;;;;;;;22.10;9.15;;;;;;;;;;6190025;23;20020;-41
2023/10/11 13:46:55;;;;;;;21.45;8.55;;;;;;;;;;6187126;23;20046;-40
2023/10/11 13:49:30;;;;;;;22.00;9.68;;;;;;;;;;6187080;23;20019;-42
2023/10/11 13:52:02;;;;;;;25.10;9.30;;;;;;;;;;6189563;23;20050;-42
2023/10/11 13:54:36;;;;;;;19.00;7.95;;;;;;;;;;6192552;23;20026;-41
2023/10/11 13:57:10;;;;;;;23.35;8.55;;;;;;;;;;6164179;23;20020;-42
2023/10/11 13:59:45;;;;;;;19.35;7.65;;;;;;;;;;6194002;23;20012;-46
2023/10/11 14:02:33;;;;;;;19.48;8.20;;;;;;;;;;6188745;23;20023;-42
2023/10/11 14:05:17;;;;;;;22.97;7.87;;;;;;;;;;6186836;23;20595;-41
2023/10/11 14:07:50;;;;;;;25.90;8.82;;;;;;;;;;6190888;23;20019;-43
2023/10/11 14:10:22;;;;;;;23.48;8.77;;;;;;;;;;6197188;23;20195;-42
2023/10/11 14:12:52;;;;;;;22.15;8.48;;;;;;;;;;6173556;23;20058;-41
2023/10/11 14:15:21;;;;;;;25.20;8.48;;;;;;;;;;6187472;23;20022;-41
2023/10/11 14:17:49;;;;;;;16.73;8.13;;;;;;;;;;6197807;23;20035;-41
2023/10/11 14:20:21;;;;;;;26.35;8.38;;;;;;;;;;6190787;23;20093;-40
2023/10/11 14:22:50;;;;;;;18.35;8.65;;;;;;;;;;6187162;23;20736;-40
2023/10/11 14:25:19;;;;;;;21.52;8.90;;;;;;;;;;6197317;23;20023;-40
2023/10/11 14:27:47;;;;;;;22.75;10.20;;;;;;;;;;6154788;23;20452;-41
2023/10/11 14:30:17;;;;;;;22.37;9.47;;;;;;;;;;6187248;23;20074;-40
2023/10/11 14:32:48;;;;;;;24.05;10.18;;;;;;;;;;6181329;23;20066;-41
2023/10/11 14:35:18;;;;;;;19.40;9.55;;;;;;;;;;6143802;23;20009;-40
2023/10/11 14:37:46;;;;;;;20.50;8.43;;;;;;;;;;6185782;23;20740;-40
2023/10/11 14:40:15;;;;;;;19.80;9.52;;;;;;;;;;6193090;23;20023;-42
2023/10/11 14:42:44;;;;;;;19.73;9.27;;;;;;;;;;6160823;23;20028;-41
2023/10/11 14:45:13;;;;;;;18.38;9.40;;;;;;;;;;6177820;23;20028;-42
2023/10/11 14:47:45;;;;;;;21.95;10.18;;;;;;;;;;6193234;23;20048;-42
2023/10/11 14:50:13;;;;;;;21.35;9.73;;;;;;;;;;6187978;23;20015;-41
2023/10/11 14:52:41;;;;;;;24.40;10.02;;;;;;;;;;6189463;23;20024;-40
2023/10/11 14:55:16;;;;;;;22.73;8.73;;;;;;;;;;6187118;23;20451;-41
2023/10/11 14:57:47;;;;;;;19.00;9.45;;;;;;;;;;6176234;23;20095;-40
2023/10/11 15:00:16;;;;;;;23.65;10.65;;;;;;;;;;6175463;23;20016;-41
2023/10/11 15:02:47;;;;;;;24.33;9.13;;;;;;;;;;6131029;23;20093;-40
2023/10/11 15:05:16;;;;;;;19.90;9.52;;;;;;;;;;6176178;23;20016;-42
2023/10/11 15:07:45;;;;;;;19.80;9.80;;;;;;;;;;6172601;23;20024;-40
2023/10/11 15:10:14;;;;;;;24.75;9.48;;;;;;;;;;6195626;23;20016;-41
2023/10/11 15:12:43;;;;;;;23.30;10.07;;;;;;;;;;6191458;23;20449;-40
2023/10/11 15:15:15;;;;;;;22.70;11.60;;;;;;;;;;6152643;23;20259;-41
2023/10/11 15:17:44;;;;;;;25.85;11.73;;;;;;;;;;6177668;23;20047;-40